TAP19K LPPR-LPPT
Flight info
| Callsign | TAP19K |
|---|---|
| Flight time | N/A |
| Altitude | 31000 |
| Route | MANIK DCT ABRIL DCT XAMAX |
| Aircraft | A20N/M-SDE2E3FGHIRWXY/LB1 |
Departure
| Time | 2026-05-05 16:06 |
|---|---|
| Airport | Francisco de Sá Carneiro Airport (LPPR) |
Arrival
| Time | N/A |
|---|---|
| Airport | Lisbon Humberto Delgado Airport (LPPT) |
| Time | Latitude | Longitude | Altitude | Speed | Heading |
|---|---|---|---|---|---|
| 2026-05-05 15:44 | 41.23372 | -8.67155 | 244 ft | 0 kts | 54° |
| 2026-05-05 15:56 | 41.23369 | -8.67165 | 244 ft | 2 kts | 92° |
| 2026-05-05 15:56 | 41.23369 | -8.67184 | 243 ft | 2 kts | 77° |
| 2026-05-05 15:56 | 41.23366 | -8.67204 | 242 ft | 2 kts | 83° |
| 2026-05-05 15:57 | 41.23364 | -8.67219 | 242 ft | 1 kts | 81° |
| 2026-05-05 15:57 | 41.23362 | -8.67239 | 241 ft | 2 kts | 79° |
| 2026-05-05 15:57 | 41.23360 | -8.67257 | 240 ft | 1 kts | 110° |
| 2026-05-05 15:57 | 41.23366 | -8.67275 | 240 ft | 2 kts | 107° |
| 2026-05-05 15:58 | 41.23370 | -8.67294 | 239 ft | 2 kts | 109° |
| 2026-05-05 15:58 | 41.23375 | -8.67313 | 238 ft | 2 kts | 108° |
| 2026-05-05 15:58 | 41.23381 | -8.67332 | 237 ft | 2 kts | 122° |
| 2026-05-05 15:58 | 41.23389 | -8.67348 | 237 ft | 2 kts | 135° |
| 2026-05-05 15:59 | 41.23401 | -8.67360 | 236 ft | 2 kts | 149° |
| 2026-05-05 15:59 | 41.23415 | -8.67369 | 236 ft | 2 kts | 163° |
| 2026-05-05 15:59 | 41.23428 | -8.67372 | 236 ft | 2 kts | 173° |
| 2026-05-05 15:59 | 41.23443 | -8.67376 | 236 ft | 2 kts | 167° |
| 2026-05-05 16:00 | 41.23457 | -8.67380 | 235 ft | 1 kts | 168° |
| 2026-05-05 16:00 | 41.23460 | -8.67381 | 235 ft | 0 kts | 168° |
| 2026-05-05 16:02 | 41.23459 | -8.67381 | 235 ft | 0 kts | 168° |
| 2026-05-05 16:02 | 41.23438 | -8.67375 | 236 ft | 4 kts | 168° |
| 2026-05-05 16:03 | 41.23407 | -8.67368 | 236 ft | 5 kts | 173° |
| 2026-05-05 16:03 | 41.23367 | -8.67373 | 236 ft | 6 kts | 201° |
| 2026-05-05 16:03 | 41.23336 | -8.67420 | 234 ft | 6 kts | 245° |
| 2026-05-05 16:03 | 41.23320 | -8.67500 | 231 ft | 9 kts | 259° |
| 2026-05-05 16:04 | 41.23311 | -8.67563 | 228 ft | 7 kts | 260° |
| 2026-05-05 16:04 | 41.23307 | -8.67595 | 227 ft | 0 kts | 261° |
| 2026-05-05 16:04 | 41.23305 | -8.67613 | 226 ft | 7 kts | 261° |
| 2026-05-05 16:05 | 41.23311 | -8.67724 | 222 ft | 12 kts | 315° |
| 2026-05-05 16:05 | 41.23337 | -8.67741 | 221 ft | 1 kts | 347° |
| 2026-05-05 16:05 | 41.23610 | -8.67820 | 216 ft | 81 kts | 347° |
| 2026-05-05 16:05 | 41.24381 | -8.68047 | 202 ft | 145 kts | 345° |
| 2026-05-05 16:06 | 41.25471 | -8.68314 | 540 ft | 170 kts | 347° |
| 2026-05-05 16:06 | 41.26619 | -8.68610 | 1355 ft | 169 kts | 347° |
| 2026-05-05 16:06 | 41.27742 | -8.68920 | 2255 ft | 167 kts | 347° |
| 2026-05-05 16:06 | 41.28918 | -8.69241 | 2871 ft | 182 kts | 347° |
| 2026-05-05 16:07 | 41.30204 | -8.69588 | 3467 ft | 200 kts | 347° |
| 2026-05-05 16:07 | 41.31626 | -8.69968 | 4054 ft | 220 kts | 347° |
| 2026-05-05 16:07 | 41.33202 | -8.70410 | 4671 ft | 241 kts | 343° |
| 2026-05-05 16:07 | 41.34647 | -8.71580 | 5403 ft | 257 kts | 309° |
| 2026-05-05 16:08 | 41.35289 | -8.73779 | 6460 ft | 264 kts | 274° |
| 2026-05-05 16:08 | 41.34914 | -8.76123 | 7382 ft | 270 kts | 244° |
| 2026-05-05 16:08 | 41.33629 | -8.77988 | 8063 ft | 285 kts | 212° |
| 2026-05-05 16:08 | 41.31718 | -8.78688 | 8778 ft | 294 kts | 180° |
| 2026-05-05 16:09 | 41.29670 | -8.78365 | 9518 ft | 300 kts | 171° |
| 2026-05-05 16:09 | 41.27596 | -8.77875 | 10202 ft | 306 kts | 170° |
| 2026-05-05 16:09 | 41.25466 | -8.77374 | 10700 ft | 320 kts | 171° |
| 2026-05-05 16:09 | 41.23241 | -8.76878 | 11057 ft | 337 kts | 172° |
| 2026-05-05 16:10 | 41.20839 | -8.76371 | 11391 ft | 355 kts | 172° |
| 2026-05-05 16:10 | 41.18353 | -8.75941 | 11690 ft | 372 kts | 179° |
| 2026-05-05 16:10 | 41.15738 | -8.76347 | 11996 ft | 385 kts | 195° |
| 2026-05-05 16:10 | 41.13103 | -8.77289 | 12433 ft | 396 kts | 198° |
| 2026-05-05 16:11 | 41.10446 | -8.78298 | 13082 ft | 401 kts | 198° |
| 2026-05-05 16:11 | 41.02246 | -8.81152 | 15007 ft | 414 kts | 197° |
| 2026-05-05 16:12 | 40.99426 | -8.82072 | 15608 ft | 419 kts | 197° |
| 2026-05-05 16:12 | 40.93677 | -8.83914 | 16735 ft | 428 kts | 198° |
| 2026-05-05 16:13 | 40.84837 | -8.86704 | 18433 ft | 439 kts | 198° |
| 2026-05-05 16:13 | 40.81898 | -8.87626 | 18985 ft | 442 kts | 198° |
| 2026-05-05 16:13 | 40.78900 | -8.88566 | 19546 ft | 445 kts | 198° |
| 2026-05-05 16:14 | 40.73654 | -8.90212 | 20505 ft | 449 kts | 198° |
| 2026-05-05 16:14 | 40.68232 | -8.91911 | 21442 ft | 453 kts | 198° |
| 2026-05-05 16:15 | 40.62067 | -8.93840 | 22429 ft | 457 kts | 198° |
| 2026-05-05 16:15 | 40.55839 | -8.95785 | 23032 ft | 460 kts | 198° |
| 2026-05-05 16:16 | 40.49647 | -8.97714 | 23036 ft | 458 kts | 198° |
| 2026-05-05 16:16 | 40.43444 | -8.99645 | 23041 ft | 457 kts | 198° |
| 2026-05-05 16:17 | 40.37261 | -9.01568 | 23045 ft | 457 kts | 198° |
| 2026-05-05 16:17 | 40.34166 | -9.02528 | 23039 ft | 457 kts | 198° |
| 2026-05-05 16:18 | 40.27967 | -9.04448 | 23045 ft | 457 kts | 198° |
| 2026-05-05 16:18 | 40.24910 | -9.05394 | 23046 ft | 456 kts | 198° |
| 2026-05-05 16:18 | 40.18718 | -9.07307 | 23042 ft | 455 kts | 198° |
| 2026-05-05 16:19 | 40.15632 | -9.08260 | 23047 ft | 455 kts | 198° |
| 2026-05-05 16:19 | 40.12557 | -9.09208 | 23050 ft | 455 kts | 198° |
| 2026-05-05 16:19 | 40.06357 | -9.11116 | 23045 ft | 455 kts | 198° |
| 2026-05-05 16:20 | 40.00190 | -9.13011 | 23051 ft | 454 kts | 198° |
| 2026-05-05 16:20 | 39.94077 | -9.14887 | 23057 ft | 453 kts | 198° |
| 2026-05-05 16:21 | 39.87933 | -9.16765 | 23054 ft | 452 kts | 197° |
| 2026-05-05 16:22 | 39.78740 | -9.19558 | 23060 ft | 452 kts | 197° |
| 2026-05-05 16:22 | 39.72640 | -9.21415 | 23062 ft | 452 kts | 197° |